createdAt,value
2022-11-16T00:01:30.172Z,88.45
2022-11-16T00:04:04.421Z,88.67
2022-11-16T00:06:54.012Z,88.57
2022-11-16T00:09:28.753Z,88.71
2022-11-16T00:12:06.342Z,88.52
2022-11-16T00:14:38.920Z,88.58
2022-11-16T00:17:11.555Z,88.35
2022-11-16T00:19:56.423Z,88.95
2022-11-16T00:22:29.005Z,88.98
2022-11-16T00:25:01.608Z,89.14
2022-11-16T00:27:36.666Z,89.59
2022-11-16T00:30:10.733Z,89.45
2022-11-16T00:32:43.321Z,88.95
2022-11-16T00:35:15.922Z,88.86
2022-11-16T00:37:48.628Z,89.19
2022-11-16T00:40:21.285Z,89.14
2022-11-16T00:42:55.149Z,89.11
2022-11-16T00:45:33.331Z,89.34
2022-11-16T00:48:06.458Z,89.56
2022-11-16T00:50:39.470Z,89.48
2022-11-16T00:53:20.252Z,90.03
2022-11-16T00:55:53.213Z,89.64
2022-11-16T00:58:25.840Z,89.63
2022-11-16T01:01:06.293Z,89.62
2022-11-16T01:03:39.550Z,89.75
2022-11-16T01:06:18.189Z,89.63
2022-11-16T01:08:58.492Z,89.85
2022-11-16T01:11:51.826Z,89.66
2022-11-16T01:14:26.819Z,89.60
2022-11-16T01:17:00.052Z,89.46
2022-11-16T01:19:32.966Z,90.21
2022-11-16T01:22:05.810Z,89.96
2022-11-16T01:24:38.547Z,89.61
2022-11-16T01:27:11.157Z,89.49
2022-11-16T01:29:43.704Z,89.25
2022-11-16T01:32:16.445Z,89.61
2022-11-16T01:34:49.634Z,89.35
2022-11-16T01:37:22.233Z,89.09
2022-11-16T01:39:54.865Z,89.49
2022-11-16T01:42:30.368Z,89.69
2022-11-16T01:45:16.787Z,89.47
2022-11-16T01:47:49.703Z,89.21
2022-11-16T01:50:23.353Z,89.27
2022-11-16T01:53:03.880Z,89.41
2022-11-16T01:55:38.417Z,89.44
2022-11-16T01:58:24.735Z,89.35
2022-11-16T02:00:57.637Z,89.11
2022-11-16T02:03:30.233Z,89.94
2022-11-16T02:06:26.881Z,89.13
2022-11-16T02:09:36.358Z,89.27
2022-11-16T02:12:31.004Z,89.14
2022-11-16T02:15:24.588Z,89.15
2022-11-16T02:18:32.878Z,89.10
2022-11-16T02:21:27.614Z,88.77
2022-11-16T02:24:14.636Z,89.18
2022-11-16T02:27:33.724Z,88.83
2022-11-16T02:30:07.884Z,88.85
2022-11-16T02:33:02.763Z,89.01
2022-11-16T02:35:49.660Z,90.28
2022-11-16T02:38:36.163Z,91.47
2022-11-16T02:41:17.860Z,89.59
2022-11-16T02:44:06.176Z,88.36
2022-11-16T02:46:46.154Z,88.54
2022-11-16T02:49:20.047Z,88.50
2022-11-16T02:51:58.100Z,88.39
2022-11-16T02:54:30.656Z,87.76
2022-11-16T02:57:03.178Z,87.74
2022-11-16T02:59:51.695Z,87.99
2022-11-16T03:02:36.369Z,88.29
2022-11-16T03:05:20.998Z,87.49
2022-11-16T03:08:56.506Z,87.10
2022-11-16T03:11:54.680Z,86.88
2022-11-16T03:14:46.001Z,86.77
2022-11-16T03:17:39.321Z,86.65
2022-11-16T03:20:20.397Z,86.65
2022-11-16T03:23:00.021Z,86.64
2022-11-16T03:25:50.796Z,87.10
2022-11-16T03:28:40.251Z,87.06
2022-11-16T03:31:29.102Z,86.63
2022-11-16T03:34:11.659Z,86.95
2022-11-16T03:36:49.928Z,87.69
2022-11-16T03:39:31.480Z,87.31
2022-11-16T03:42:16.944Z,87.16
2022-11-16T03:44:50.520Z,87.51
2022-11-16T03:47:23.561Z,88.00
2022-11-16T03:49:56.694Z,87.58
2022-11-16T03:52:29.745Z,88.38
2022-11-16T03:55:02.381Z,87.70
2022-11-16T03:57:34.939Z,87.88
2022-11-16T04:00:09.602Z,88.01
2022-11-16T04:02:42.177Z,87.97
2022-11-16T04:05:33.454Z,87.52
2022-11-16T04:08:24.798Z,87.45
2022-11-16T04:11:16.136Z,87.26
2022-11-16T04:14:09.518Z,87.67
2022-11-16T04:17:00.820Z,87.12
2022-11-16T04:19:56.852Z,87.69
2022-11-16T04:23:01.223Z,87.34
2022-11-16T04:25:37.687Z,87.30
2022-11-16T04:28:13.505Z,87.42
2022-11-16T04:31:09.104Z,87.64
2022-11-16T04:34:00.598Z,87.40
2022-11-16T04:36:51.554Z,88.04
2022-11-16T04:39:24.129Z,87.85
2022-11-16T04:42:14.908Z,87.68
2022-11-16T04:45:06.269Z,87.96
2022-11-16T04:47:38.856Z,88.18
2022-11-16T04:50:11.958Z,88.02
2022-11-16T04:52:45.555Z,87.67
2022-11-16T04:55:18.226Z,88.49
2022-11-16T04:57:51.402Z,88.65
2022-11-16T05:00:24.587Z,88.71
2022-11-16T05:03:01.307Z,88.33
2022-11-16T05:05:34.258Z,88.74
2022-11-16T05:08:09.117Z,88.24
2022-11-16T05:10:41.841Z,88.18
2022-11-16T05:13:14.396Z,88.31
2022-11-16T05:15:46.984Z,87.96
2022-11-16T05:18:19.549Z,87.76
2022-11-16T05:21:01.173Z,88.08
2022-11-16T05:23:52.322Z,87.59
2022-11-16T05:26:24.836Z,87.60
2022-11-16T05:28:57.393Z,87.73
2022-11-16T05:31:29.936Z,87.53
2022-11-16T05:34:02.503Z,87.45
2022-11-16T05:36:37.771Z,87.95
2022-11-16T05:39:12.553Z,87.82
2022-11-16T05:41:46.314Z,87.61
2022-11-16T05:44:19.492Z,87.89
2022-11-16T05:46:53.214Z,88.21
2022-11-16T05:49:26.255Z,88.61
2022-11-16T05:51:58.937Z,88.61
2022-11-16T05:54:31.532Z,88.88
2022-11-16T05:57:04.204Z,89.10
2022-11-16T05:59:47.504Z,89.27
2022-11-16T06:02:21.970Z,89.35
2022-11-16T06:04:54.799Z,89.96
2022-11-16T06:07:27.539Z,89.31
2022-11-16T06:10:00.185Z,89.59
2022-11-16T06:12:32.744Z,89.89
2022-11-16T06:15:06.117Z,90.25
2022-11-16T06:17:38.725Z,89.96
2022-11-16T06:20:14.240Z,90.06
2022-11-16T06:22:46.966Z,89.98
2022-11-16T06:25:19.783Z,90.33
2022-11-16T06:27:53.753Z,89.92
2022-11-16T06:30:26.463Z,89.97
2022-11-16T06:32:59.256Z,90.11
2022-11-16T06:35:32.531Z,90.19
2022-11-16T06:38:05.505Z,90.02
2022-11-16T06:40:38.481Z,90.14
2022-11-16T06:43:11.224Z,90.89
2022-11-16T06:45:43.825Z,90.80
2022-11-16T06:48:18.306Z,90.60
2022-11-16T06:50:52.219Z,90.49
2022-11-16T06:53:29.176Z,90.77
2022-11-16T06:56:06.701Z,90.83
2022-11-16T06:58:44.528Z,91.37
2022-11-16T07:01:17.366Z,90.59
2022-11-16T07:03:49.975Z,91.11
2022-11-16T07:06:25.776Z,90.12
2022-11-16T07:09:04.019Z,90.50
2022-11-16T07:11:39.144Z,90.27
2022-11-16T07:14:17.757Z,90.87
2022-11-16T07:16:53.678Z,90.41
2022-11-16T07:19:55.433Z,90.92
2022-11-16T07:22:41.066Z,90.59
2022-11-16T07:25:18.934Z,91.19
2022-11-16T07:28:04.776Z,91.25
2022-11-16T07:31:12.174Z,91.25
2022-11-16T07:33:55.170Z,91.03
2022-11-16T07:36:37.504Z,90.72
2022-11-16T07:39:19.084Z,90.81
2022-11-16T07:41:57.380Z,91.05
2022-11-16T07:44:38.788Z,90.81
2022-11-16T07:47:27.793Z,91.07
2022-11-16T07:50:01.593Z,90.29
2022-11-16T07:52:50.894Z,90.74
2022-11-16T07:55:28.593Z,90.56
2022-11-16T07:58:05.957Z,90.60
2022-11-16T08:01:05.809Z,90.24
2022-11-16T08:06:42.884Z,89.88
2022-11-16T08:09:17.947Z,90.36
2022-11-16T08:12:12.211Z,90.26
2022-11-16T08:15:21.854Z,89.86
2022-11-16T08:21:09.603Z,89.46
2022-11-16T08:23:59.027Z,89.33
2022-11-16T08:26:48.147Z,89.25
2022-11-16T08:29:34.384Z,88.81
2022-11-16T08:32:28.193Z,88.73
2022-11-16T08:38:21.350Z,88.21
2022-11-16T08:41:20.239Z,87.99
2022-11-16T08:47:01.085Z,87.25
2022-11-16T08:49:48.206Z,87.40
2022-11-16T08:52:45.115Z,86.83
2022-11-16T08:55:35.984Z,86.67
2022-11-16T08:58:47.708Z,86.89
2022-11-16T09:01:37.315Z,87.13
2022-11-16T09:04:29.606Z,86.42
2022-11-16T09:07:22.578Z,85.77
2022-11-16T09:10:02.812Z,85.74
2022-11-16T09:19:37.830Z,85.45
2022-11-16T09:22:23.588Z,85.31
2022-11-16T09:25:12.393Z,84.64
2022-11-16T09:28:01.906Z,84.79
2022-11-16T09:31:01.853Z,83.89
2022-11-16T09:34:14.270Z,83.32
2022-11-16T09:37:01.620Z,83.69
2022-11-16T09:39:53.521Z,83.23
2022-11-16T09:42:54.525Z,83.37
2022-11-16T09:46:31.724Z,82.82
2022-11-16T09:49:21.014Z,82.92
2022-11-16T09:52:25.415Z,82.48
2022-11-16T10:06:22.413Z,80.12
2022-11-16T10:09:05.867Z,80.16
2022-11-16T10:12:46.210Z,80.16
2022-11-16T10:16:04.301Z,79.58
2022-11-16T10:19:10.312Z,78.98
2022-11-16T10:22:07.379Z,78.39
2022-11-16T10:25:20.033Z,78.17
2022-11-16T10:28:40.097Z,77.74
2022-11-16T10:35:14.121Z,76.93
2022-11-16T10:38:16.483Z,77.09
2022-11-16T10:41:13.017Z,76.47
2022-11-16T10:44:42.577Z,76.98
2022-11-16T10:47:50.891Z,76.77
2022-11-16T10:51:14.411Z,75.94
2022-11-16T10:54:27.778Z,75.95
2022-11-16T10:57:26.686Z,74.93
2022-11-16T11:00:18.312Z,74.70
2022-11-16T11:03:11.877Z,74.29
2022-11-16T11:06:04.218Z,73.81
2022-11-16T11:09:20.843Z,73.29
2022-11-16T11:12:25.625Z,73.52
2022-11-16T11:15:32.032Z,73.05
2022-11-16T11:18:32.480Z,72.04
2022-11-16T11:21:26.943Z,71.96
2022-11-16T11:24:43.236Z,72.28
2022-11-16T11:27:16.540Z,72.59
2022-11-16T11:29:57.605Z,71.62
2022-11-16T11:32:40.421Z,71.55
2022-11-16T11:35:35.479Z,71.72
2022-11-16T11:38:21.884Z,72.00
2022-11-16T11:41:05.570Z,71.96
2022-11-16T11:44:08.282Z,71.50
2022-11-16T11:50:10.930Z,70.83
2022-11-16T11:53:07.574Z,71.05
2022-11-16T11:55:40.209Z,70.84
2022-11-16T11:58:19.350Z,70.84
2022-11-16T12:01:25.923Z,70.87
2022-11-16T12:03:58.921Z,70.99
2022-11-16T12:06:43.951Z,69.10
2022-11-16T12:09:48.532Z,69.32
2022-11-16T12:12:42.987Z,70.18
2022-11-16T12:15:40.328Z,70.18
2022-11-16T12:18:46.314Z,70.02
2022-11-16T12:21:54.937Z,70.04
2022-11-16T12:25:05.480Z,70.04
2022-11-16T12:28:21.833Z,69.50
2022-11-16T12:31:28.449Z,69.55
2022-11-16T12:34:25.905Z,69.46
2022-11-16T12:37:20.295Z,69.42
2022-11-16T12:40:53.049Z,69.44
2022-11-16T12:43:50.541Z,70.22
2022-11-16T12:46:56.684Z,69.45
2022-11-16T12:49:36.274Z,69.65
2022-11-16T12:52:36.734Z,68.92
2022-11-16T12:55:29.391Z,68.72
2022-11-16T12:58:46.064Z,68.94
2022-11-16T13:01:41.281Z,69.27
2022-11-16T13:04:30.478Z,69.25
2022-11-16T13:07:21.085Z,69.57
2022-11-16T13:10:22.160Z,70.50
2022-11-16T13:15:59.718Z,69.79
2022-11-16T13:18:37.907Z,69.63
2022-11-16T13:21:28.615Z,69.09
2022-11-16T13:24:46.946Z,68.73
2022-11-16T13:27:36.067Z,68.57
2022-11-16T13:30:23.259Z,68.61
2022-11-16T13:33:13.806Z,69.45
2022-11-16T13:35:46.514Z,69.53
2022-11-16T13:38:54.095Z,69.33
2022-11-16T13:42:04.924Z,68.92
2022-11-16T13:44:38.612Z,69.53
2022-11-16T13:47:26.980Z,69.16
2022-11-16T13:50:04.379Z,69.54
2022-11-16T13:53:57.703Z,69.65
2022-11-16T13:55:48.425Z,69.86
2022-11-16T13:58:34.084Z,68.85
2022-11-16T14:04:55.057Z,69.26
2022-11-16T14:07:43.288Z,68.09
2022-11-16T14:10:34.121Z,68.36
2022-11-16T14:13:38.827Z,68.00
2022-11-16T14:16:20.383Z,67.33
2022-11-16T14:18:56.797Z,68.03
2022-11-16T14:22:08.129Z,67.97
2022-11-16T14:24:54.953Z,68.32
2022-11-16T14:27:56.570Z,67.94
2022-11-16T14:30:50.363Z,68.64
2022-11-16T14:33:35.968Z,69.27
2022-11-16T14:36:11.160Z,69.67
2022-11-16T14:38:44.813Z,69.27
2022-11-16T14:41:24.591Z,69.31
2022-11-16T14:43:58.428Z,69.85
2022-11-16T14:46:36.112Z,69.45
2022-11-16T14:49:16.330Z,69.55
2022-11-16T14:51:57.948Z,69.98
2022-11-16T14:54:41.416Z,69.97
2022-11-16T14:57:20.684Z,69.56
2022-11-16T15:00:23.255Z,69.78
2022-11-16T15:03:02.355Z,70.46
2022-11-16T15:05:37.273Z,71.18
2022-11-16T15:08:22.889Z,70.87
2022-11-16T15:10:57.184Z,71.11
2022-11-16T15:13:30.561Z,71.37
2022-11-16T15:16:29.523Z,71.89
2022-11-16T15:19:03.155Z,71.79
2022-11-16T15:21:36.002Z,71.43
2022-11-16T15:24:29.212Z,71.65
2022-11-16T15:27:23.378Z,72.05
2022-11-16T15:29:56.165Z,72.14
2022-11-16T15:32:29.059Z,72.35
2022-11-16T15:35:05.302Z,72.05
2022-11-16T15:37:38.117Z,72.28
2022-11-16T15:40:12.337Z,72.37
2022-11-16T15:42:44.912Z,73.00
2022-11-16T15:45:28.348Z,72.45
2022-11-16T15:48:03.355Z,72.61
2022-11-16T15:50:35.949Z,73.15
2022-11-16T15:53:43.928Z,72.99
2022-11-16T15:56:31.994Z,72.91
2022-11-16T15:59:23.488Z,72.92
2022-11-16T16:01:56.730Z,73.88
2022-11-16T16:04:29.920Z,75.11
2022-11-16T16:07:02.490Z,74.79
2022-11-16T16:09:41.016Z,75.25
2022-11-16T16:12:27.850Z,75.13
2022-11-16T16:15:29.850Z,75.39
2022-11-16T16:18:35.870Z,75.83
2022-11-16T16:21:14.148Z,76.05
2022-11-16T16:23:53.520Z,76.30
2022-11-16T16:26:26.020Z,76.71
2022-11-16T16:28:58.525Z,77.27
2022-11-16T16:31:31.082Z,77.26
2022-11-16T16:34:12.648Z,77.61
2022-11-16T16:36:45.205Z,77.95
2022-11-16T16:39:17.707Z,77.47
2022-11-16T16:41:50.158Z,77.53
2022-11-16T16:44:22.631Z,77.95
2022-11-16T16:46:55.149Z,77.93
2022-11-16T16:49:30.270Z,77.54
2022-11-16T16:52:15.109Z,77.88
2022-11-16T16:54:51.757Z,77.94
2022-11-16T16:57:24.223Z,77.60
2022-11-16T17:00:04.485Z,77.68
2022-11-16T17:02:45.533Z,78.07
2022-11-16T17:05:18.098Z,77.51
2022-11-16T17:07:50.582Z,77.47
2022-11-16T17:10:23.684Z,77.47
2022-11-16T17:12:57.422Z,77.91
2022-11-16T17:15:29.954Z,77.57
2022-11-16T17:18:02.576Z,77.70
2022-11-16T17:20:35.095Z,77.72
2022-11-16T17:23:10.728Z,77.88
2022-11-16T17:25:43.233Z,78.65
2022-11-16T17:28:15.709Z,78.75
2022-11-16T17:30:48.265Z,78.10
2022-11-16T17:33:26.205Z,77.90
2022-11-16T17:36:02.860Z,78.04
2022-11-16T17:38:36.059Z,77.65
2022-11-16T17:41:18.538Z,77.22
2022-11-16T17:43:53.242Z,76.62
2022-11-16T17:46:26.302Z,76.68
2022-11-16T17:48:58.812Z,76.75
2022-11-16T17:51:31.476Z,76.63
2022-11-16T17:54:04.201Z,76.92
2022-11-16T17:56:36.701Z,76.96
2022-11-16T17:59:09.423Z,77.04
2022-11-16T18:01:41.932Z,76.73
2022-11-16T18:04:14.580Z,77.12
2022-11-16T18:06:47.127Z,76.58
2022-11-16T18:09:19.688Z,76.58
2022-11-16T18:11:52.173Z,76.28
2022-11-16T18:14:25.953Z,76.43
2022-11-16T18:16:58.643Z,76.64
2022-11-16T18:19:31.198Z,76.21
2022-11-16T18:22:03.785Z,76.95
2022-11-16T18:24:36.242Z,77.42
2022-11-16T18:27:08.796Z,77.46
2022-11-16T18:29:41.274Z,77.91
2022-11-16T18:32:19.531Z,77.17
2022-11-16T18:35:00.954Z,77.87
2022-11-16T18:37:33.418Z,77.77
2022-11-16T18:40:06.978Z,78.07
2022-11-16T18:42:39.905Z,78.12
2022-11-16T18:45:12.380Z,77.47
2022-11-16T18:47:44.905Z,77.28
2022-11-16T18:50:22.629Z,77.84
2022-11-16T18:52:58.021Z,77.40
2022-11-16T18:55:30.587Z,77.07
2022-11-16T18:58:22.519Z,77.25
2022-11-16T19:01:05.399Z,77.73
2022-11-16T19:03:37.980Z,77.51
2022-11-16T19:06:11.877Z,77.76
2022-11-16T19:08:50.497Z,77.58
2022-11-16T19:11:28.444Z,77.11
2022-11-16T19:14:03.610Z,77.09
2022-11-16T19:16:36.629Z,77.61
2022-11-16T19:19:09.216Z,77.69
2022-11-16T19:21:41.825Z,77.88
2022-11-16T19:24:14.354Z,77.60
2022-11-16T19:26:46.882Z,78.32
2022-11-16T19:29:19.481Z,77.76
2022-11-16T19:31:51.978Z,78.18
2022-11-16T19:34:27.751Z,78.21
2022-11-16T19:37:02.921Z,78.38
2022-11-16T19:39:35.373Z,77.96
2022-11-16T19:42:07.878Z,77.74
2022-11-16T19:44:40.361Z,78.27
2022-11-16T19:47:13.175Z,78.50
2022-11-16T19:49:47.589Z,78.35
2022-11-16T19:52:20.114Z,77.87
2022-11-16T19:54:52.601Z,78.13
2022-11-16T19:57:25.185Z,77.99
2022-11-16T19:59:57.772Z,78.25
2022-11-16T20:02:30.350Z,77.70
2022-11-16T20:05:03.069Z,78.14
2022-11-16T20:07:38.717Z,78.08
2022-11-16T20:10:11.357Z,78.67
2022-11-16T20:12:43.886Z,78.50
2022-11-16T20:15:16.588Z,78.44
2022-11-16T20:17:49.095Z,78.28
2022-11-16T20:20:21.553Z,78.48
2022-11-16T20:22:54.070Z,78.18
2022-11-16T20:25:26.593Z,78.59
2022-11-16T20:27:59.179Z,78.42
2022-11-16T20:30:31.852Z,78.88
2022-11-16T20:33:04.413Z,78.68
2022-11-16T20:35:36.932Z,78.57
2022-11-16T20:38:09.525Z,78.55
2022-11-16T20:40:42.334Z,77.95
2022-11-16T20:43:18.451Z,78.19
2022-11-16T20:45:56.690Z,78.46
2022-11-16T20:48:34.386Z,78.74
2022-11-16T20:51:15.668Z,78.36
2022-11-16T20:54:01.109Z,78.10
2022-11-16T20:56:42.195Z,78.06
2022-11-16T20:59:20.434Z,78.48
2022-11-16T21:02:04.974Z,78.12
2022-11-16T21:04:43.610Z,77.69
2022-11-16T21:07:16.827Z,77.52
2022-11-16T21:10:11.581Z,77.64
2022-11-16T21:13:05.740Z,77.76
2022-11-16T21:15:38.437Z,77.67
2022-11-16T21:18:10.974Z,77.81
2022-11-16T21:20:43.567Z,78.68
2022-11-16T21:23:16.168Z,79.49
2022-11-16T21:25:48.799Z,79.42
2022-11-16T21:28:25.439Z,79.82
2022-11-16T21:31:05.697Z,79.84
2022-11-16T21:33:46.301Z,80.35
2022-11-16T21:36:32.013Z,80.82
2022-11-16T21:42:09.593Z,82.03
2022-11-16T21:44:45.306Z,82.20
2022-11-16T21:47:23.951Z,82.50
2022-11-16T21:53:08.331Z,82.86
2022-11-16T21:56:10.106Z,83.52
2022-11-16T21:58:58.496Z,84.09
2022-11-16T22:01:55.849Z,84.01
2022-11-16T22:04:50.194Z,84.28
2022-11-16T22:07:45.312Z,85.23
2022-11-16T22:10:33.300Z,85.64
2022-11-16T22:13:26.790Z,85.98
2022-11-16T22:16:29.554Z,86.11
2022-11-16T22:19:18.462Z,86.11
2022-11-16T22:22:21.454Z,86.52
2022-11-16T22:28:19.618Z,87.31
2022-11-16T22:31:34.893Z,87.52
2022-11-16T22:34:31.708Z,88.29
2022-11-16T22:37:16.058Z,88.42
2022-11-16T22:40:06.712Z,88.37
2022-11-16T22:43:12.519Z,88.54
2022-11-16T22:45:56.492Z,88.62
2022-11-16T22:48:57.028Z,88.15
2022-11-16T22:51:51.025Z,88.29
2022-11-16T22:54:34.262Z,88.85
2022-11-16T22:57:12.047Z,88.73
2022-11-16T22:59:44.610Z,88.88
2022-11-16T23:02:21.161Z,88.61
2022-11-16T23:07:48.783Z,88.19
2022-11-16T23:10:48.105Z,88.00
2022-11-16T23:16:58.183Z,88.51
2022-11-16T23:19:49.477Z,88.61
2022-11-16T23:22:49.896Z,89.12
2022-11-16T23:25:41.359Z,88.94
2022-11-16T23:28:16.995Z,88.71
2022-11-16T23:30:49.679Z,88.67
2022-11-16T23:34:02.440Z,88.69
2022-11-16T23:39:31.497Z,89.50
2022-11-16T23:42:26.714Z,89.78
2022-11-16T23:45:08.668Z,89.32
2022-11-16T23:47:42.883Z,89.58
2022-11-16T23:50:21.258Z,89.66
2022-11-16T23:53:13.736Z,89.90
2022-11-16T23:56:02.702Z,89.62
2022-11-16T23:58:44.145Z,89.46
